createdAt,value
2019-05-01T00:01:00.140Z,10.60
2019-05-01T00:03:48.813Z,10.62
2019-05-01T00:06:21.363Z,10.55
2019-05-01T00:08:52.283Z,10.48
2019-05-01T00:11:23.192Z,10.61
2019-05-01T00:13:54.129Z,10.56
2019-05-01T00:16:25.038Z,10.57
2019-05-01T00:18:56.014Z,10.59
2019-05-01T00:21:26.931Z,10.48
2019-05-01T00:23:57.842Z,10.32
2019-05-01T00:26:29.225Z,10.34
2019-05-01T00:29:00.128Z,10.35
2019-05-01T00:31:31.111Z,10.27
2019-05-01T00:34:02.021Z,10.12
2019-05-01T00:36:33.699Z,10.26
2019-05-01T00:39:06.246Z,10.22
2019-05-01T00:41:37.186Z,10.16
2019-05-01T00:44:08.100Z,10.16
2019-05-01T00:46:39.008Z,10.12
2019-05-01T00:49:09.915Z,10.13
2019-05-01T00:51:40.845Z,10.10
2019-05-01T00:54:11.767Z,10.12
2019-05-01T00:56:47.034Z,9.91
2019-05-01T00:59:28.560Z,10.06
2019-05-01T01:02:01.097Z,10.04
2019-05-01T01:04:32.058Z,10.02
2019-05-01T01:07:03.176Z,9.99
2019-05-01T01:09:34.088Z,9.97
2019-05-01T01:12:04.996Z,10.03
2019-05-01T01:14:35.902Z,9.98
2019-05-01T01:17:06.805Z,9.97
2019-05-01T01:19:37.735Z,10.07
2019-05-01T01:22:08.640Z,9.86
2019-05-01T01:24:39.544Z,9.80
2019-05-01T01:27:10.444Z,9.87
2019-05-01T01:29:41.349Z,9.50
2019-05-01T01:32:12.247Z,9.61
2019-05-01T01:34:43.182Z,9.51
2019-05-01T01:37:14.101Z,9.63
2019-05-01T01:39:44.983Z,9.71
2019-05-01T01:42:16.082Z,9.75
2019-05-01T01:45:00.759Z,9.75
2019-05-01T01:47:31.661Z,9.77
2019-05-01T01:50:02.607Z,9.77
2019-05-01T01:52:33.962Z,9.81
2019-05-01T01:55:05.902Z,9.80
2019-05-01T01:57:36.899Z,9.64
2019-05-01T02:00:09.632Z,9.70
2019-05-01T02:02:42.203Z,9.75
2019-05-01T02:05:14.759Z,9.76
2019-05-01T02:07:45.667Z,9.78
2019-05-01T02:10:16.616Z,9.75
2019-05-01T02:12:47.481Z,9.77
2019-05-01T02:15:18.450Z,9.74
2019-05-01T02:17:49.359Z,9.77
2019-05-01T02:20:21.940Z,9.74
2019-05-01T02:22:53.130Z,9.73
2019-05-01T02:25:24.209Z,9.75
2019-05-01T02:28:02.429Z,9.75
2019-05-01T02:30:33.914Z,9.67
2019-05-01T02:33:04.834Z,9.59
2019-05-01T02:35:35.981Z,9.63
2019-05-01T02:38:06.889Z,9.57
2019-05-01T02:40:51.502Z,9.61
2019-05-01T02:43:22.409Z,9.54
2019-05-01T02:45:55.958Z,9.68
2019-05-01T02:48:26.854Z,9.84
2019-05-01T02:51:00.196Z,9.74
2019-05-01T02:53:31.172Z,9.65
2019-05-01T02:56:15.818Z,9.67
2019-05-01T02:58:46.714Z,9.64
2019-05-01T03:01:17.682Z,9.67
2019-05-01T03:03:48.595Z,9.59
2019-05-01T03:06:19.581Z,9.66
2019-05-01T03:08:51.124Z,9.69
2019-05-01T03:11:22.026Z,9.58
2019-05-01T03:13:53.629Z,9.49
2019-05-01T03:16:24.533Z,9.53
2019-05-01T03:19:03.008Z,9.37
2019-05-01T03:21:41.200Z,9.42
2019-05-01T03:24:13.749Z,9.21
2019-05-01T03:26:44.643Z,9.28
2019-05-01T03:29:15.551Z,9.24
2019-05-01T03:32:12.867Z,9.12
2019-05-01T03:34:19.123Z,9.25
2019-05-01T03:36:50.006Z,9.23
2019-05-01T03:39:20.907Z,9.22
2019-05-01T03:41:51.797Z,9.22
2019-05-01T03:44:22.702Z,9.19
2019-05-01T03:46:53.602Z,9.23
2019-05-01T03:49:24.521Z,9.06
2019-05-01T03:51:55.413Z,9.04
2019-05-01T03:54:26.339Z,9.14
2019-05-01T03:56:57.235Z,9.18
2019-05-01T03:59:28.228Z,9.24
2019-05-01T04:02:00.779Z,9.20
2019-05-01T04:04:32.558Z,9.10
2019-05-01T04:07:03.471Z,9.13
2019-05-01T04:09:34.398Z,9.16
2019-05-01T04:12:05.300Z,9.11
2019-05-01T04:14:39.137Z,9.22
2019-05-01T04:17:22.357Z,9.11
2019-05-01T04:19:54.107Z,9.12
2019-05-01T04:22:25.012Z,9.16
2019-05-01T04:24:55.936Z,9.20
2019-05-01T04:27:28.588Z,9.18
2019-05-01T04:30:06.765Z,9.12
2019-05-01T04:32:51.729Z,9.18
2019-05-01T04:35:18.283Z,9.20
2019-05-01T04:37:49.209Z,9.03
2019-05-01T04:40:20.377Z,9.07
2019-05-01T04:42:51.357Z,9.00
2019-05-01T04:45:22.344Z,8.98
2019-05-01T04:47:53.439Z,9.10
2019-05-01T04:50:24.327Z,9.09
2019-05-01T04:52:55.229Z,8.94
2019-05-01T04:55:26.132Z,9.11
2019-05-01T04:57:57.048Z,9.04
2019-05-01T05:00:27.958Z,9.03
2019-05-01T05:03:04.986Z,9.08
2019-05-01T05:05:32.657Z,9.01
2019-05-01T05:08:03.435Z,9.03
2019-05-01T05:10:34.340Z,9.05
2019-05-01T05:13:09.683Z,9.14
2019-05-01T05:15:49.343Z,9.06
2019-05-01T05:18:20.245Z,9.08
2019-05-01T05:20:51.143Z,9.12
2019-05-01T05:23:22.032Z,8.96
2019-05-01T05:25:53.577Z,8.95
2019-05-01T05:28:25.209Z,9.03
2019-05-01T05:30:56.113Z,8.96
2019-05-01T05:33:27.579Z,8.86
2019-05-01T05:35:58.473Z,8.92
2019-05-01T05:38:37.240Z,8.79
2019-05-01T05:41:08.137Z,8.76
2019-05-01T05:43:39.064Z,8.74
2019-05-01T05:46:09.946Z,8.78
2019-05-01T05:48:41.133Z,8.83
2019-05-01T05:51:26.060Z,8.78
2019-05-01T05:54:13.677Z,8.88
2019-05-01T05:56:55.637Z,8.72
2019-05-01T05:59:28.176Z,8.81
2019-05-01T06:02:07.684Z,8.92
2019-05-01T06:04:41.138Z,8.93
2019-05-01T06:07:25.535Z,8.96
2019-05-01T06:10:11.235Z,8.82
2019-05-01T06:12:52.503Z,8.92
2019-05-01T06:15:25.036Z,9.01
2019-05-01T06:18:04.126Z,9.04
2019-05-01T06:20:37.463Z,9.08
2019-05-01T06:23:15.721Z,9.09
2019-05-01T06:25:49.473Z,9.12
2019-05-01T06:28:24.812Z,9.11
2019-05-01T06:30:55.055Z,9.03
2019-05-01T06:33:25.952Z,9.13
2019-05-01T06:35:56.848Z,9.09
2019-05-01T06:38:31.579Z,9.24
2019-05-01T06:41:01.611Z,9.28
2019-05-01T06:43:34.177Z,9.25
2019-05-01T06:46:07.552Z,9.24
2019-05-01T06:48:40.117Z,9.23
2019-05-01T06:51:29.067Z,9.28
2019-05-01T06:53:59.993Z,9.29
2019-05-01T06:56:30.884Z,9.51
2019-05-01T06:59:02.361Z,9.67
2019-05-01T07:01:33.613Z,9.79
2019-05-01T07:04:04.513Z,9.90
2019-05-01T07:06:35.762Z,9.94
2019-05-01T07:09:11.721Z,9.89
2019-05-01T07:11:47.062Z,9.94
2019-05-01T07:14:16.584Z,10.03
2019-05-01T07:16:47.735Z,10.05
2019-05-01T07:19:20.316Z,10.21
2019-05-01T07:21:51.225Z,10.12
2019-05-01T07:24:24.008Z,10.15
2019-05-01T07:26:54.883Z,10.26
2019-05-01T07:29:27.431Z,10.14
2019-05-01T07:32:01.717Z,10.21
2019-05-01T07:34:30.989Z,10.39
2019-05-01T07:37:02.347Z,10.33
2019-05-01T07:39:33.551Z,10.61
2019-05-01T07:42:22.182Z,10.89
2019-05-01T07:44:57.891Z,10.81
2019-05-01T07:47:33.173Z,11.03
2019-05-01T07:50:08.970Z,11.17
2019-05-01T07:52:40.163Z,10.97
2019-05-01T07:55:13.135Z,11.09
2019-05-01T07:57:44.578Z,10.97
2019-05-01T08:00:19.932Z,11.20
2019-05-01T08:02:50.878Z,11.61
2019-05-01T08:05:21.865Z,11.50
2019-05-01T08:07:53.768Z,11.51
2019-05-01T08:10:25.905Z,11.73
2019-05-01T08:13:00.454Z,11.73
2019-05-01T08:15:32.538Z,11.56
2019-05-01T08:18:13.066Z,11.72
2019-05-01T08:20:55.289Z,11.82
2019-05-01T08:23:26.269Z,12.03
2019-05-01T08:25:57.164Z,11.70
2019-05-01T08:28:32.028Z,11.77
2019-05-01T08:31:05.044Z,12.14
2019-05-01T08:33:53.842Z,12.22
2019-05-01T08:36:24.762Z,12.52
2019-05-01T08:38:55.769Z,12.52
2019-05-01T08:41:27.139Z,12.23
2019-05-01T08:43:59.274Z,12.25
2019-05-01T08:46:34.464Z,12.00
2019-05-01T08:49:15.947Z,11.94
2019-05-01T08:51:46.877Z,12.03
2019-05-01T08:54:17.780Z,11.96
2019-05-01T08:56:53.034Z,12.33
2019-05-01T08:59:24.126Z,12.30
2019-05-01T09:02:08.531Z,12.29
2019-05-01T09:04:30.352Z,12.65
2019-05-01T09:06:59.174Z,13.26
2019-05-01T09:09:30.088Z,12.98
2019-05-01T09:12:00.985Z,13.03
2019-05-01T09:14:35.162Z,12.71
2019-05-01T09:17:04.513Z,12.68
2019-05-01T09:19:35.438Z,12.91
2019-05-01T09:22:06.339Z,13.22
2019-05-01T09:24:37.242Z,13.20
2019-05-01T09:27:23.716Z,13.44
2019-05-01T09:29:58.400Z,13.58
2019-05-01T09:32:29.396Z,13.75
2019-05-01T09:35:00.325Z,13.99
2019-05-01T09:37:31.222Z,14.22
2019-05-01T09:40:04.022Z,14.31
2019-05-01T09:42:36.963Z,14.45
2019-05-01T09:45:07.962Z,14.36
2019-05-01T09:47:38.937Z,14.50
2019-05-01T09:50:10.133Z,14.50
2019-05-01T09:52:45.187Z,14.52
2019-05-01T09:55:24.860Z,14.27
2019-05-01T09:57:55.959Z,14.37
2019-05-01T10:00:31.146Z,14.63
2019-05-01T10:03:02.085Z,15.03
2019-05-01T10:05:33.452Z,14.82
2019-05-01T10:08:05.435Z,14.76
2019-05-01T10:10:37.082Z,14.81
2019-05-01T10:13:08.143Z,14.82
2019-05-01T10:15:39.033Z,14.98
2019-05-01T10:18:10.936Z,15.17
2019-05-01T10:20:41.829Z,15.37
2019-05-01T10:23:14.993Z,15.40
2019-05-01T10:25:49.499Z,15.29
2019-05-01T10:28:35.022Z,15.65
2019-05-01T10:31:11.979Z,15.55
2019-05-01T10:33:44.289Z,15.33
2019-05-01T10:36:32.905Z,15.45
2019-05-01T10:39:06.166Z,15.34
2019-05-01T10:41:41.063Z,15.36
2019-05-01T10:44:09.709Z,15.68
2019-05-01T10:46:40.608Z,15.60
2019-05-01T10:49:11.524Z,15.79
2019-05-01T10:51:42.699Z,15.89
2019-05-01T10:54:13.597Z,15.84
2019-05-01T10:56:44.531Z,15.85
2019-05-01T10:59:15.430Z,16.15
2019-05-01T11:01:53.720Z,16.07
2019-05-01T11:04:24.692Z,16.15
2019-05-01T11:06:55.616Z,16.03
2019-05-01T11:09:26.548Z,15.92
2019-05-01T11:11:57.514Z,15.98
2019-05-01T11:14:28.413Z,16.16
2019-05-01T11:16:59.342Z,16.02
2019-05-01T11:19:30.249Z,16.28
2019-05-01T11:22:01.158Z,16.48
2019-05-01T11:24:32.085Z,16.83
2019-05-01T11:27:02.980Z,16.57
2019-05-01T11:29:33.906Z,16.53
2019-05-01T11:32:16.578Z,16.66
2019-05-01T11:34:49.142Z,16.85
2019-05-01T11:37:28.791Z,16.98
2019-05-01T11:40:04.701Z,17.13
2019-05-01T11:42:35.651Z,17.21
2019-05-01T11:45:10.872Z,17.17
2019-05-01T11:47:41.767Z,16.87
2019-05-01T11:50:13.136Z,16.96
2019-05-01T11:52:44.117Z,17.23
2019-05-01T11:55:15.057Z,17.51
2019-05-01T11:57:46.040Z,17.81
2019-05-01T12:00:18.795Z,17.76
2019-05-01T12:02:49.702Z,17.98
2019-05-01T12:05:20.618Z,18.21
2019-05-01T12:07:51.539Z,18.14
2019-05-01T12:10:22.440Z,17.82
2019-05-01T12:12:53.611Z,17.85
2019-05-01T12:15:24.514Z,18.04
2019-05-01T12:17:55.412Z,18.17
2019-05-01T12:20:26.338Z,18.42
2019-05-01T12:22:57.253Z,17.81
2019-05-01T12:25:28.155Z,18.03
2019-05-01T12:27:59.058Z,18.38
2019-05-01T12:30:29.972Z,18.45
2019-05-01T12:33:01.183Z,18.36
2019-05-01T12:35:32.092Z,18.20
2019-05-01T12:38:04.665Z,18.31
2019-05-01T12:40:35.566Z,18.49
2019-05-01T12:43:06.458Z,18.28
2019-05-01T12:45:37.361Z,18.52
2019-05-01T12:48:08.601Z,18.69
2019-05-01T12:50:39.498Z,18.80
2019-05-01T12:53:14.904Z,18.81
2019-05-01T12:55:56.521Z,18.87
2019-05-01T12:58:27.430Z,18.68
2019-05-01T13:00:58.321Z,18.72
2019-05-01T13:03:29.221Z,18.65
2019-05-01T13:06:00.123Z,19.04
2019-05-01T13:08:31.031Z,19.08
2019-05-01T13:11:01.932Z,19.22
2019-05-01T13:13:33.403Z,18.83
2019-05-01T13:16:04.304Z,18.78
2019-05-01T13:18:35.209Z,18.84
2019-05-01T13:21:06.118Z,18.65
2019-05-01T13:23:37.033Z,18.48
2019-05-01T13:26:09.580Z,18.88
2019-05-01T13:28:44.813Z,19.20
2019-05-01T13:31:17.373Z,18.89
2019-05-01T13:33:48.274Z,18.87
2019-05-01T13:36:19.194Z,19.01
2019-05-01T13:38:50.097Z,18.66
2019-05-01T13:41:21.016Z,18.75
2019-05-01T13:43:51.982Z,18.79
2019-05-01T13:46:22.953Z,19.24
2019-05-01T13:48:53.867Z,19.06
2019-05-01T13:51:24.793Z,19.35
2019-05-01T13:53:55.695Z,19.42
2019-05-01T13:56:26.618Z,18.96
2019-05-01T13:58:57.669Z,18.79
2019-05-01T14:01:28.595Z,18.79
2019-05-01T14:03:59.495Z,18.95
2019-05-01T14:06:30.414Z,19.02
2019-05-01T14:09:01.762Z,19.11
2019-05-01T14:11:32.694Z,18.93
2019-05-01T14:33:14.558Z,20.98
2019-05-01T14:35:45.480Z,19.87
2019-05-01T14:38:16.391Z,19.35
2019-05-01T14:40:47.309Z,19.29
2019-05-01T14:43:18.215Z,19.19
2019-05-01T14:45:49.202Z,19.01
2019-05-01T14:48:20.348Z,18.93
2019-05-01T14:50:51.274Z,18.78
2019-05-01T14:53:22.187Z,18.39
2019-05-01T14:55:53.369Z,18.42
2019-05-01T14:58:24.275Z,18.43
2019-05-01T15:00:55.194Z,18.26
2019-05-01T15:03:26.109Z,17.94
2019-05-01T15:05:57.031Z,17.64
2019-05-01T15:08:27.972Z,17.89
2019-05-01T15:10:58.882Z,17.99
2019-05-01T15:13:38.512Z,17.91
2019-05-01T15:16:11.090Z,18.06
2019-05-01T15:18:46.538Z,17.99
2019-05-01T15:21:17.466Z,17.93
2019-05-01T15:23:53.588Z,17.60
2019-05-01T15:26:20.987Z,17.49
2019-05-01T15:28:51.894Z,17.36
2019-05-01T15:31:22.808Z,17.35
2019-05-01T15:33:54.471Z,17.59
2019-05-01T15:36:25.376Z,17.57
2019-05-01T15:38:57.026Z,17.59
2019-05-01T15:41:45.691Z,17.58
2019-05-01T15:44:17.356Z,17.54
2019-05-01T15:46:48.268Z,17.47
2019-05-01T15:49:19.193Z,17.66
2019-05-01T15:51:50.101Z,17.78
2019-05-01T15:54:21.006Z,17.81
2019-05-01T15:56:51.919Z,17.76
2019-05-01T15:59:22.837Z,17.41
2019-05-01T16:01:53.817Z,17.49
2019-05-01T16:04:24.730Z,17.34
2019-05-01T16:06:55.638Z,17.40
2019-05-01T16:09:26.628Z,17.31
2019-05-01T16:12:14.239Z,17.33
2019-05-01T16:14:45.927Z,17.25
2019-05-01T16:17:16.843Z,17.29
2019-05-01T16:19:48.224Z,16.92
2019-05-01T16:22:19.146Z,16.77
2019-05-01T16:24:50.097Z,16.76
2019-05-01T16:27:20.977Z,16.58
2019-05-01T16:29:51.889Z,16.68
2019-05-01T16:32:22.807Z,16.61
2019-05-01T16:34:53.708Z,16.71
2019-05-01T16:37:24.645Z,16.62
2019-05-01T16:40:15.460Z,16.63
2019-05-01T16:42:46.365Z,16.76
2019-05-01T16:45:17.371Z,16.83
2019-05-01T16:47:48.292Z,16.65
2019-05-01T16:50:19.195Z,16.64
2019-05-01T16:52:50.273Z,16.39
2019-05-01T16:55:21.214Z,16.46
2019-05-01T16:57:52.129Z,16.47
2019-05-01T17:00:45.952Z,16.41
2019-05-01T17:03:18.523Z,16.35
2019-05-01T17:05:53.709Z,16.34
2019-05-01T17:08:36.074Z,16.32
2019-05-01T17:11:01.564Z,16.20
2019-05-01T17:13:32.486Z,16.10
2019-05-01T17:16:03.455Z,15.99
2019-05-01T17:18:34.464Z,15.89
2019-05-01T17:21:05.542Z,15.88
2019-05-01T17:23:36.458Z,15.79
2019-05-01T17:26:07.405Z,15.92
2019-05-01T17:28:38.348Z,16.00
2019-05-01T17:31:09.257Z,15.85
2019-05-01T17:33:40.172Z,15.77
2019-05-01T17:36:11.076Z,15.69
2019-05-01T17:38:49.406Z,15.64
2019-05-01T17:41:14.616Z,15.62
2019-05-01T17:43:49.473Z,15.64
2019-05-01T17:46:18.337Z,15.60
2019-05-01T17:48:49.255Z,15.66
2019-05-01T17:51:20.173Z,15.49
2019-05-01T17:53:51.082Z,15.44
2019-05-01T17:56:27.989Z,15.50
2019-05-01T17:58:54.632Z,15.35
2019-05-01T18:01:32.574Z,15.27
2019-05-01T18:04:13.279Z,15.27
2019-05-01T18:06:46.637Z,15.21
2019-05-01T18:09:18.688Z,15.21
2019-05-01T18:11:52.149Z,15.02
2019-05-01T18:14:22.239Z,15.02
2019-05-01T18:16:53.711Z,14.98
2019-05-01T18:19:24.684Z,15.08
2019-05-01T18:21:59.942Z,14.99
2019-05-01T18:24:48.513Z,14.94
2019-05-01T18:27:26.786Z,14.95
2019-05-01T18:29:59.800Z,14.91
2019-05-01T18:32:36.526Z,14.63
2019-05-01T18:35:08.882Z,14.74
2019-05-01T18:37:53.916Z,14.81
2019-05-01T18:40:26.503Z,14.92
2019-05-01T18:42:57.430Z,14.85
2019-05-01T18:45:53.936Z,14.79
2019-05-01T18:48:24.902Z,14.77
2019-05-01T18:50:56.384Z,14.78
2019-05-01T18:53:27.431Z,14.53
2019-05-01T18:56:01.314Z,14.63
2019-05-01T18:58:30.969Z,14.45
2019-05-01T19:01:04.092Z,14.37
2019-05-01T19:03:37.119Z,14.53
2019-05-01T19:06:08.516Z,14.26
2019-05-01T19:08:39.446Z,14.03
2019-05-01T19:11:12.718Z,13.88
2019-05-01T19:13:43.271Z,13.84
2019-05-01T19:16:14.207Z,14.03
2019-05-01T19:18:45.123Z,13.80
2019-05-01T19:21:17.719Z,13.51
2019-05-01T19:23:48.652Z,13.70
2019-05-01T19:26:19.584Z,13.29
2019-05-01T19:28:50.505Z,13.21
2019-05-01T19:31:21.578Z,13.13
2019-05-01T19:33:52.550Z,13.34
2019-05-01T19:36:23.472Z,13.34
2019-05-01T19:38:54.395Z,13.38
2019-05-01T19:41:25.319Z,13.37
2019-05-01T19:43:56.262Z,13.39
2019-05-01T19:46:27.175Z,13.32
2019-05-01T19:48:58.100Z,13.26
2019-05-01T19:51:29.030Z,12.77
2019-05-01T19:53:59.982Z,12.62
2019-05-01T19:56:30.870Z,12.69
2019-05-01T19:59:01.922Z,12.63
2019-05-01T20:01:32.807Z,12.78
2019-05-01T20:04:03.716Z,13.29
2019-05-01T20:06:38.559Z,13.42
2019-05-01T20:09:07.436Z,13.21
2019-05-01T20:11:38.346Z,13.17
2019-05-01T20:14:09.281Z,13.31
2019-05-01T20:16:40.189Z,13.34
2019-05-01T20:19:11.116Z,13.42
2019-05-01T20:21:42.036Z,13.49
2019-05-01T20:24:13.408Z,12.80
2019-05-01T20:26:44.348Z,12.51
2019-05-01T20:29:17.642Z,12.88
2019-05-01T20:31:50.770Z,12.93
2019-05-01T20:34:20.656Z,12.56
2019-05-01T20:36:51.546Z,12.66
2019-05-01T20:39:23.946Z,12.78
2019-05-01T20:41:55.078Z,12.57
2019-05-01T20:44:26.002Z,12.43
2019-05-01T20:46:58.441Z,12.80
2019-05-01T20:49:29.517Z,12.68
2019-05-01T20:52:00.441Z,12.58
2019-05-01T20:54:31.351Z,12.38
2019-05-01T20:57:03.927Z,12.62
2019-05-01T20:59:38.805Z,12.74
2019-05-01T21:02:08.263Z,12.43
2019-05-01T21:04:41.660Z,12.49
2019-05-01T21:07:15.668Z,12.50
2019-05-01T21:09:56.791Z,12.68
2019-05-01T21:12:23.653Z,12.69
2019-05-01T21:14:54.540Z,12.78
2019-05-01T21:17:25.453Z,12.83
2019-05-01T21:19:56.370Z,12.73
2019-05-01T21:22:27.274Z,12.95
2019-05-01T21:24:58.197Z,12.88
2019-05-01T21:27:29.102Z,12.84
2019-05-01T21:30:00.181Z,12.84
2019-05-01T21:32:31.103Z,12.96
2019-05-01T21:35:02.016Z,13.01
2019-05-01T21:37:33.702Z,12.98
2019-05-01T21:40:07.089Z,13.02
2019-05-01T21:42:37.996Z,12.91
2019-05-01T21:45:08.910Z,12.96
2019-05-01T21:47:39.827Z,12.92
2019-05-01T21:50:10.730Z,12.80
2019-05-01T21:52:43.629Z,12.79
2019-05-01T21:55:14.260Z,12.86
2019-05-01T21:57:49.920Z,12.89
2019-05-01T22:00:20.000Z,12.82
2019-05-01T22:02:50.437Z,12.87
2019-05-01T22:05:21.350Z,12.82
2019-05-01T22:07:52.337Z,12.73
2019-05-01T22:10:26.699Z,12.76
2019-05-01T22:12:55.881Z,12.76
2019-05-01T22:15:30.844Z,12.74
2019-05-01T22:18:14.897Z,12.71
2019-05-01T22:20:53.617Z,12.72
2019-05-01T22:23:32.074Z,12.64
2019-05-01T22:26:03.011Z,12.55
2019-05-01T22:28:36.144Z,12.50
2019-05-01T22:31:24.838Z,12.44
2019-05-01T22:33:57.414Z,12.56
2019-05-01T22:36:28.329Z,12.54
2019-05-01T22:39:02.295Z,12.58
2019-05-01T22:41:32.046Z,12.36
2019-05-01T22:44:03.221Z,12.43
2019-05-01T22:46:39.040Z,12.43
2019-05-01T22:49:07.171Z,12.48
2019-05-01T22:51:38.073Z,12.47
2019-05-01T22:54:09.009Z,12.42
2019-05-01T22:56:39.941Z,12.46
2019-05-01T22:59:12.152Z,12.27
2019-05-01T23:01:44.689Z,12.34
2019-05-01T23:04:17.108Z,12.37
2019-05-01T23:06:48.263Z,12.23
2019-05-01T23:09:23.518Z,12.29
2019-05-01T23:11:52.634Z,12.27
2019-05-01T23:14:24.728Z,12.14
2019-05-01T23:16:58.665Z,12.21
2019-05-01T23:19:29.902Z,12.11
2019-05-01T23:22:00.823Z,12.08
2019-05-01T23:24:31.726Z,11.99
2019-05-01T23:27:02.655Z,12.02
2019-05-01T23:29:33.654Z,11.97
2019-05-01T23:32:06.403Z,11.90
2019-05-01T23:34:37.335Z,11.75
2019-05-01T23:37:08.233Z,11.79
2019-05-01T23:39:40.277Z,11.83
2019-05-01T23:42:11.753Z,11.59
2019-05-01T23:44:44.140Z,11.75
2019-05-01T23:47:15.174Z,11.77
2019-05-01T23:49:47.757Z,11.52
2019-05-01T23:52:18.812Z,11.63
2019-05-01T23:54:49.786Z,11.25
2019-05-01T23:57:20.744Z,11.38
2019-05-01T23:59:51.653Z,11.43
